createdAt,value
2018-08-22T00:00:57.549Z,1013.57
2018-08-22T00:01:57.519Z,1013.54
2018-08-22T00:02:57.498Z,1013.55
2018-08-22T00:03:57.479Z,1013.53
2018-08-22T00:04:57.463Z,1013.56
2018-08-22T00:05:57.423Z,1013.61
2018-08-22T00:06:57.406Z,1013.55
2018-08-22T00:07:57.379Z,1013.55
2018-08-22T00:08:57.413Z,1013.53
2018-08-22T00:09:57.344Z,1013.56
2018-08-22T00:10:57.309Z,1013.55
2018-08-22T00:11:57.289Z,1013.56
2018-08-22T00:12:57.267Z,1013.52
2018-08-22T00:13:57.238Z,1013.57
2018-08-22T00:14:57.212Z,1013.58
2018-08-22T00:15:57.218Z,1013.55
2018-08-22T00:16:57.187Z,1013.58
2018-08-22T00:17:57.152Z,1013.57
2018-08-22T00:18:57.129Z,1013.54
2018-08-22T00:19:57.100Z,1013.53
2018-08-22T00:20:57.085Z,1013.51
2018-08-22T00:21:57.052Z,1013.53
2018-08-22T00:22:57.029Z,1013.48
2018-08-22T00:23:57.007Z,1013.49
2018-08-22T00:24:56.981Z,1013.47
2018-08-22T00:25:56.965Z,1013.51
2018-08-22T00:26:56.990Z,1013.46
2018-08-22T00:27:56.909Z,1013.47
2018-08-22T00:28:56.896Z,1013.43
2018-08-22T00:29:56.864Z,1013.42
2018-08-22T00:30:56.838Z,1013.41
2018-08-22T00:31:56.822Z,1013.43
2018-08-22T00:32:58.181Z,1013.41
2018-08-22T00:33:58.174Z,1013.42
2018-08-22T00:34:57.173Z,1013.43
2018-08-22T00:35:56.721Z,1013.43
2018-08-22T00:36:56.703Z,1013.43
2018-08-22T00:37:57.359Z,1013.43
2018-08-22T00:38:56.656Z,1013.42
2018-08-22T00:39:56.632Z,1013.45
2018-08-22T00:40:56.606Z,1013.35
2018-08-22T00:41:56.583Z,1013.41
2018-08-22T00:42:56.569Z,1013.43
2018-08-22T00:43:56.533Z,1013.39
2018-08-22T00:44:56.518Z,1013.39
2018-08-22T00:45:56.491Z,1013.42
2018-08-22T00:46:56.463Z,1013.40
2018-08-22T00:47:56.443Z,1013.39
2018-08-22T00:48:56.428Z,1013.42
2018-08-22T00:49:56.390Z,1013.39
2018-08-22T00:50:56.369Z,1013.37
2018-08-22T00:51:56.344Z,1013.40
2018-08-22T00:52:56.328Z,1013.35
2018-08-22T00:53:56.312Z,1013.33
2018-08-22T00:54:56.273Z,1013.35
2018-08-22T00:55:56.257Z,1013.33
2018-08-22T00:56:56.231Z,1013.31
2018-08-22T00:57:56.207Z,1013.29
2018-08-22T00:58:56.179Z,1013.33
2018-08-22T00:59:56.162Z,1013.36
2018-08-22T01:00:56.132Z,1013.36
2018-08-22T01:01:56.110Z,1013.31
2018-08-22T01:02:56.088Z,1013.32
2018-08-22T01:03:56.060Z,1013.29
2018-08-22T01:04:56.040Z,1013.27
2018-08-22T01:05:56.015Z,1013.31
2018-08-22T01:06:55.992Z,1013.29
2018-08-22T01:07:55.968Z,1013.26
2018-08-22T01:08:55.947Z,1013.22
2018-08-22T01:09:55.928Z,1013.25
2018-08-22T01:10:55.900Z,1013.24
2018-08-22T01:11:55.869Z,1013.20
2018-08-22T01:12:55.847Z,1013.22
2018-08-22T01:13:55.823Z,1013.22
2018-08-22T01:14:55.802Z,1013.20
2018-08-22T01:15:55.775Z,1013.20
2018-08-22T01:16:55.752Z,1013.19
2018-08-22T01:17:55.733Z,1013.16
2018-08-22T01:18:55.730Z,1013.17
2018-08-22T01:19:55.691Z,1013.17
2018-08-22T01:20:55.663Z,1013.14
2018-08-22T01:21:55.641Z,1013.16
2018-08-22T01:22:55.621Z,1013.17
2018-08-22T01:23:55.586Z,1013.20
2018-08-22T01:24:55.570Z,1013.20
2018-08-22T01:25:55.544Z,1013.16
2018-08-22T01:26:55.518Z,1013.21
2018-08-22T01:27:55.496Z,1013.21
2018-08-22T01:28:55.473Z,1013.17
2018-08-22T01:29:55.445Z,1013.19
2018-08-22T01:30:55.426Z,1013.20
2018-08-22T01:31:55.400Z,1013.20
2018-08-22T01:32:55.407Z,1013.21
2018-08-22T01:33:55.355Z,1013.16
2018-08-22T01:34:55.325Z,1013.16
2018-08-22T01:35:55.320Z,1013.17
2018-08-22T01:36:55.292Z,1013.16
2018-08-22T01:37:55.253Z,1013.13
2018-08-22T01:38:55.244Z,1013.14
2018-08-22T01:39:55.212Z,1013.13
2018-08-22T01:40:55.185Z,1013.11
2018-08-22T01:41:55.171Z,1013.13
2018-08-22T01:42:55.170Z,1013.13
2018-08-22T01:43:55.115Z,1013.07
2018-08-22T01:44:55.093Z,1013.10
2018-08-22T01:45:55.089Z,1013.10
2018-08-22T01:46:55.048Z,1013.11
2018-08-22T01:47:55.022Z,1013.10
2018-08-22T01:48:55.010Z,1013.09
2018-08-22T01:49:54.970Z,1013.14
2018-08-22T01:50:54.954Z,1013.12
2018-08-22T01:51:54.927Z,1013.10
2018-08-22T01:52:54.902Z,1013.08
2018-08-22T01:53:54.880Z,1013.11
2018-08-22T01:54:54.857Z,1013.10
2018-08-22T01:55:54.830Z,1013.11
2018-08-22T01:56:54.811Z,1013.09
2018-08-22T01:57:54.779Z,1013.09
2018-08-22T01:58:54.840Z,1013.11
2018-08-22T01:59:54.734Z,1013.12
2018-08-22T02:00:54.712Z,1013.07
2018-08-22T02:01:54.687Z,1013.09
2018-08-22T02:02:54.664Z,1013.09
2018-08-22T02:03:54.642Z,1013.10
2018-08-22T02:04:54.617Z,1013.11
2018-08-22T02:05:54.595Z,1013.02
2018-08-22T02:06:54.575Z,1013.01
2018-08-22T02:07:54.560Z,1012.98
2018-08-22T02:08:54.528Z,1012.98
2018-08-22T02:09:54.508Z,1013.02
2018-08-22T02:10:54.480Z,1012.94
2018-08-22T02:11:54.452Z,1012.94
2018-08-22T02:12:54.431Z,1012.93
2018-08-22T02:13:54.408Z,1012.97
2018-08-22T02:14:54.384Z,1012.94
2018-08-22T02:15:54.376Z,1012.95
2018-08-22T02:16:54.339Z,1012.94
2018-08-22T02:17:54.314Z,1012.93
2018-08-22T02:18:54.303Z,1012.94
2018-08-22T02:19:54.265Z,1012.95
2018-08-22T02:20:54.240Z,1012.95
2018-08-22T02:21:54.221Z,1012.91
2018-08-22T02:22:54.201Z,1012.92
2018-08-22T02:23:54.173Z,1012.93
2018-08-22T02:24:54.150Z,1012.90
2018-08-22T02:25:54.118Z,1012.88
2018-08-22T02:26:54.099Z,1012.91
2018-08-22T02:27:54.073Z,1012.90
2018-08-22T02:28:54.066Z,1012.89
2018-08-22T02:29:54.039Z,1012.92
2018-08-22T02:30:54.011Z,1012.88
2018-08-22T02:31:53.985Z,1012.93
2018-08-22T02:32:53.956Z,1012.90
2018-08-22T02:33:53.934Z,1012.89
2018-08-22T02:34:53.910Z,1012.86
2018-08-22T02:35:53.895Z,1012.83
2018-08-22T02:36:53.864Z,1012.84
2018-08-22T02:37:53.841Z,1012.83
2018-08-22T02:38:53.818Z,1012.82
2018-08-22T02:39:53.798Z,1012.86
2018-08-22T02:40:53.777Z,1012.83
2018-08-22T02:41:53.744Z,1012.86
2018-08-22T02:42:53.725Z,1012.84
2018-08-22T02:43:53.699Z,1012.80
2018-08-22T02:44:53.673Z,1012.80
2018-08-22T02:45:53.660Z,1012.78
2018-08-22T02:46:53.630Z,1012.79
2018-08-22T02:47:53.604Z,1012.76
2018-08-22T02:48:53.589Z,1012.74
2018-08-22T02:49:53.555Z,1012.75
2018-08-22T02:50:53.537Z,1012.76
2018-08-22T02:51:53.509Z,1012.77
2018-08-22T02:52:53.488Z,1012.78
2018-08-22T02:53:53.461Z,1012.78
2018-08-22T02:54:53.443Z,1012.75
2018-08-22T02:55:53.419Z,1012.76
2018-08-22T02:56:53.391Z,1012.77
2018-08-22T02:57:53.373Z,1012.76
2018-08-22T02:58:53.348Z,1012.75
2018-08-22T02:59:53.318Z,1012.75
2018-08-22T03:00:53.298Z,1012.73
2018-08-22T03:01:53.279Z,1012.77
2018-08-22T03:02:53.248Z,1012.72
2018-08-22T03:03:53.225Z,1012.73
2018-08-22T03:04:53.200Z,1012.75
2018-08-22T03:05:53.185Z,1012.75
2018-08-22T03:06:53.160Z,1012.76
2018-08-22T03:07:53.133Z,1012.76
2018-08-22T03:08:53.112Z,1012.73
2018-08-22T03:09:53.088Z,1012.73
2018-08-22T03:10:53.057Z,1012.75
2018-08-22T03:11:53.044Z,1012.74
2018-08-22T03:12:53.011Z,1012.74
2018-08-22T03:13:52.993Z,1012.76
2018-08-22T03:14:52.967Z,1012.71
2018-08-22T03:15:52.944Z,1012.71
2018-08-22T03:16:52.920Z,1012.70
2018-08-22T03:17:52.908Z,1012.72
2018-08-22T03:18:52.869Z,1012.74
2018-08-22T03:19:52.849Z,1012.73
2018-08-22T03:20:52.826Z,1012.74
2018-08-22T03:21:52.803Z,1012.78
2018-08-22T03:22:52.781Z,1012.76
2018-08-22T03:23:52.752Z,1012.72
2018-08-22T03:24:52.727Z,1012.72
2018-08-22T03:25:52.709Z,1012.72
2018-08-22T03:26:52.680Z,1012.72
2018-08-22T03:27:52.663Z,1012.70
2018-08-22T03:28:52.643Z,1012.69
2018-08-22T03:29:52.609Z,1012.70
2018-08-22T03:30:52.596Z,1012.70
2018-08-22T03:31:52.564Z,1012.65
2018-08-22T03:32:52.566Z,1012.68
2018-08-22T03:33:52.543Z,1012.67
2018-08-22T03:34:52.498Z,1012.66
2018-08-22T03:35:52.481Z,1012.64
2018-08-22T03:36:52.448Z,1012.59
2018-08-22T03:37:52.420Z,1012.59
2018-08-22T03:38:52.395Z,1012.57
2018-08-22T03:39:52.375Z,1012.57
2018-08-22T03:40:52.354Z,1012.61
2018-08-22T03:41:52.321Z,1012.63
2018-08-22T03:42:52.302Z,1012.56
2018-08-22T03:43:52.277Z,1012.58
2018-08-22T03:44:52.280Z,1012.57
2018-08-22T03:45:52.234Z,1012.59
2018-08-22T03:46:52.211Z,1012.57
2018-08-22T03:47:52.183Z,1012.56
2018-08-22T03:48:52.161Z,1012.57
2018-08-22T03:49:52.134Z,1012.57
2018-08-22T03:50:52.109Z,1012.58
2018-08-22T03:51:52.085Z,1012.59
2018-08-22T03:52:52.069Z,1012.62
2018-08-22T03:53:52.045Z,1012.62
2018-08-22T03:54:52.017Z,1012.64
2018-08-22T03:55:51.994Z,1012.64
2018-08-22T03:56:51.977Z,1012.61
2018-08-22T03:57:51.943Z,1012.61
2018-08-22T03:58:51.920Z,1012.61
2018-08-22T03:59:51.903Z,1012.61
2018-08-22T04:00:51.873Z,1012.58
2018-08-22T04:01:51.854Z,1012.58
2018-08-22T04:02:51.825Z,1012.59
2018-08-22T04:03:51.803Z,1012.57
2018-08-22T04:04:51.784Z,1012.58
2018-08-22T04:05:51.757Z,1012.59
2018-08-22T04:06:51.731Z,1012.60
2018-08-22T04:07:51.712Z,1012.56
2018-08-22T04:08:51.686Z,1012.56
2018-08-22T04:09:51.669Z,1012.61
2018-08-22T04:10:51.641Z,1012.57
2018-08-22T04:11:51.613Z,1012.57
2018-08-22T04:12:51.593Z,1012.60
2018-08-22T04:13:51.562Z,1012.58
2018-08-22T04:14:51.541Z,1012.55
2018-08-22T04:15:51.529Z,1012.56
2018-08-22T04:16:51.492Z,1012.57
2018-08-22T04:17:51.475Z,1012.57
2018-08-22T04:18:51.445Z,1012.63
2018-08-22T04:19:51.430Z,1012.58
2018-08-22T04:20:51.395Z,1012.56
2018-08-22T04:21:51.379Z,1012.59
2018-08-22T04:22:51.356Z,1012.61
2018-08-22T04:23:51.324Z,1012.58
2018-08-22T04:24:51.308Z,1012.59
2018-08-22T04:25:51.288Z,1012.61
2018-08-22T04:26:51.256Z,1012.62
2018-08-22T04:27:51.232Z,1012.58
2018-08-22T04:28:51.224Z,1012.57
2018-08-22T04:29:51.190Z,1012.62
2018-08-22T04:30:51.208Z,1012.60
2018-08-22T04:31:51.175Z,1012.58
2018-08-22T04:32:51.116Z,1012.58
2018-08-22T04:33:51.086Z,1012.57
2018-08-22T04:34:51.068Z,1012.57
2018-08-22T04:35:51.039Z,1012.58
2018-08-22T04:36:51.021Z,1012.55
2018-08-22T04:37:50.994Z,1012.55
2018-08-22T04:38:50.975Z,1012.55
2018-08-22T04:39:50.954Z,1012.58
2018-08-22T04:40:50.923Z,1012.56
2018-08-22T04:41:50.901Z,1012.54
2018-08-22T04:42:50.872Z,1012.53
2018-08-22T04:43:50.852Z,1012.55
2018-08-22T04:44:50.830Z,1012.54
2018-08-22T04:45:50.800Z,1012.55
2018-08-22T04:46:50.780Z,1012.58
2018-08-22T04:47:50.754Z,1012.59
2018-08-22T04:48:50.729Z,1012.62
2018-08-22T04:49:50.718Z,1012.59
2018-08-22T04:50:50.679Z,1012.59
2018-08-22T04:51:50.665Z,1012.58
2018-08-22T04:52:50.637Z,1012.54
2018-08-22T04:53:50.616Z,1012.53
2018-08-22T04:54:50.593Z,1012.50
2018-08-22T04:55:50.588Z,1012.53
2018-08-22T04:56:50.541Z,1012.55
2018-08-22T04:57:50.518Z,1012.55
2018-08-22T04:58:50.499Z,1012.55
2018-08-22T04:59:50.467Z,1012.56
2018-08-22T05:00:50.446Z,1012.56
2018-08-22T05:01:50.418Z,1012.54
2018-08-22T05:02:50.398Z,1012.56
2018-08-22T05:03:50.375Z,1012.58
2018-08-22T05:04:50.348Z,1012.59
2018-08-22T05:05:50.366Z,1012.63
2018-08-22T05:06:50.302Z,1012.63
2018-08-22T05:07:50.279Z,1012.64
2018-08-22T05:08:50.272Z,1012.62
2018-08-22T05:09:50.228Z,1012.57
2018-08-22T05:10:50.249Z,1012.60
2018-08-22T05:11:50.198Z,1012.57
2018-08-22T05:12:50.173Z,1012.57
2018-08-22T05:13:50.142Z,1012.52
2018-08-22T05:14:50.111Z,1012.58
2018-08-22T05:15:50.095Z,1012.55
2018-08-22T05:16:50.060Z,1012.56
2018-08-22T05:17:50.047Z,1012.56
2018-08-22T05:18:50.024Z,1012.55
2018-08-22T05:19:49.995Z,1012.58
2018-08-22T05:20:49.974Z,1012.56
2018-08-22T05:21:49.957Z,1012.57
2018-08-22T05:22:49.928Z,1012.58
2018-08-22T05:23:49.899Z,1012.56
2018-08-22T05:24:49.889Z,1012.54
2018-08-22T05:25:49.870Z,1012.57
2018-08-22T05:26:49.827Z,1012.53
2018-08-22T05:27:49.806Z,1012.52
2018-08-22T05:28:50.481Z,1012.51
2018-08-22T05:29:49.759Z,1012.52
2018-08-22T05:30:49.739Z,1012.57
2018-08-22T05:31:49.708Z,1012.54
2018-08-22T05:32:49.689Z,1012.53
2018-08-22T05:33:49.656Z,1012.52
2018-08-22T05:34:49.648Z,1012.53
2018-08-22T05:35:49.621Z,1012.53
2018-08-22T05:36:49.587Z,1012.54
2018-08-22T05:37:49.577Z,1012.51
2018-08-22T05:38:49.568Z,1012.52
2018-08-22T05:39:49.525Z,1012.45
2018-08-22T05:40:49.496Z,1012.51
2018-08-22T05:41:49.477Z,1012.47
2018-08-22T05:42:49.456Z,1012.49
2018-08-22T05:43:49.422Z,1012.49
2018-08-22T05:44:49.402Z,1012.49
2018-08-22T05:45:49.382Z,1012.50
2018-08-22T05:46:49.351Z,1012.48
2018-08-22T05:47:49.335Z,1012.50
2018-08-22T05:48:49.307Z,1012.49
2018-08-22T05:49:49.290Z,1012.50
2018-08-22T05:50:49.268Z,1012.49
2018-08-22T05:51:49.235Z,1012.50
2018-08-22T05:52:49.220Z,1012.51
2018-08-22T05:53:49.187Z,1012.51
2018-08-22T05:54:49.167Z,1012.52
2018-08-22T05:55:49.162Z,1012.52
2018-08-22T05:56:49.150Z,1012.47
2018-08-22T05:57:49.156Z,1012.46
2018-08-22T05:58:49.086Z,1012.47
2018-08-22T05:59:49.058Z,1012.49
2018-08-22T06:00:49.029Z,1012.53
2018-08-22T06:01:49.002Z,1012.51
2018-08-22T06:02:48.984Z,1012.49
2018-08-22T06:03:48.964Z,1012.51
2018-08-22T06:04:48.933Z,1012.50
2018-08-22T06:05:49.118Z,1012.52
2018-08-22T06:06:48.886Z,1012.54
2018-08-22T06:07:48.869Z,1012.50
2018-08-22T06:08:48.910Z,1012.54
2018-08-22T06:09:48.817Z,1012.53
2018-08-22T06:10:48.794Z,1012.51
2018-08-22T06:11:48.777Z,1012.53
2018-08-22T06:12:48.779Z,1012.55
2018-08-22T06:13:48.727Z,1012.56
2018-08-22T06:14:48.704Z,1012.56
2018-08-22T06:15:48.739Z,1012.56
2018-08-22T06:16:48.655Z,1012.54
2018-08-22T06:17:48.628Z,1012.51
2018-08-22T06:18:48.607Z,1012.52
2018-08-22T06:19:48.581Z,1012.54
2018-08-22T06:20:48.558Z,1012.56
2018-08-22T06:21:48.541Z,1012.55
2018-08-22T06:22:48.510Z,1012.59
2018-08-22T06:23:48.491Z,1012.60
2018-08-22T06:24:48.508Z,1012.60
2018-08-22T06:25:48.440Z,1012.57
2018-08-22T06:26:48.424Z,1012.56
2018-08-22T06:27:48.395Z,1012.62
2018-08-22T06:28:48.373Z,1012.59
2018-08-22T06:29:48.357Z,1012.55
2018-08-22T06:30:48.326Z,1012.56
2018-08-22T06:31:48.309Z,1012.57
2018-08-22T06:32:48.279Z,1012.52
2018-08-22T06:33:48.257Z,1012.52
2018-08-22T06:34:48.287Z,1012.55
2018-08-22T06:35:48.218Z,1012.53
2018-08-22T06:36:48.203Z,1012.56
2018-08-22T06:37:48.168Z,1012.54
2018-08-22T06:38:48.146Z,1012.50
2018-08-22T06:39:48.117Z,1012.49
2018-08-22T06:40:48.095Z,1012.49
2018-08-22T06:41:48.075Z,1012.47
2018-08-22T06:42:48.050Z,1012.40
2018-08-22T06:43:48.031Z,1012.46
2018-08-22T06:44:48.006Z,1012.48
2018-08-22T06:45:47.978Z,1012.47
2018-08-22T06:46:47.972Z,1012.48
2018-08-22T06:47:47.938Z,1012.48
2018-08-22T06:48:47.922Z,1012.48
2018-08-22T06:49:47.890Z,1012.49
2018-08-22T06:50:47.864Z,1012.47
2018-08-22T06:51:47.848Z,1012.44
2018-08-22T06:52:47.818Z,1012.46
2018-08-22T06:53:47.801Z,1012.48
2018-08-22T06:54:47.778Z,1012.43
2018-08-22T06:55:47.749Z,1012.44
2018-08-22T06:56:47.733Z,1012.45
2018-08-22T06:57:47.701Z,1012.43
2018-08-22T06:58:47.686Z,1012.39
2018-08-22T06:59:47.659Z,1012.40
2018-08-22T07:00:47.635Z,1012.42
2018-08-22T07:01:47.618Z,1012.37
2018-08-22T07:02:47.589Z,1012.38
2018-08-22T07:03:47.568Z,1012.33
2018-08-22T07:04:47.545Z,1012.32
2018-08-22T07:05:47.523Z,1012.30
2018-08-22T07:06:47.506Z,1012.31
2018-08-22T07:07:47.478Z,1012.25
2018-08-22T07:08:47.460Z,1012.27
2018-08-22T07:09:47.436Z,1012.26
2018-08-22T07:10:47.409Z,1012.23
2018-08-22T07:11:47.394Z,1012.22
2018-08-22T07:12:47.370Z,1012.21
2018-08-22T07:13:47.344Z,1012.21
2018-08-22T07:14:47.319Z,1012.20
2018-08-22T07:15:47.298Z,1012.20
2018-08-22T07:16:47.277Z,1012.18
2018-08-22T07:17:47.262Z,1012.20
2018-08-22T07:18:47.233Z,1012.18
2018-08-22T07:19:47.215Z,1012.20
2018-08-22T07:20:47.204Z,1012.20
2018-08-22T07:21:47.167Z,1012.14
2018-08-22T07:22:47.141Z,1012.17
2018-08-22T07:23:47.127Z,1012.17
2018-08-22T07:24:47.125Z,1012.19
2018-08-22T07:25:47.074Z,1012.14
2018-08-22T07:26:47.058Z,1012.17
2018-08-22T07:27:47.031Z,1012.18
2018-08-22T07:28:47.010Z,1012.16
2018-08-22T07:29:46.988Z,1012.14
2018-08-22T07:30:46.964Z,1012.18
2018-08-22T07:31:46.938Z,1012.18
2018-08-22T07:32:46.926Z,1012.20
2018-08-22T07:33:46.898Z,1012.19
2018-08-22T07:34:46.875Z,1012.19
2018-08-22T07:35:46.943Z,1012.16
2018-08-22T07:36:46.825Z,1012.19
2018-08-22T07:37:46.808Z,1012.19
2018-08-22T07:38:46.790Z,1012.18
2018-08-22T07:39:46.770Z,1012.23
2018-08-22T07:40:46.749Z,1012.19
2018-08-22T07:41:46.718Z,1012.26
2018-08-22T07:42:46.712Z,1012.21
2018-08-22T07:43:46.678Z,1012.22
2018-08-22T07:44:46.649Z,1012.21
2018-08-22T07:45:46.633Z,1012.21
2018-08-22T07:46:46.610Z,1012.26
2018-08-22T07:47:46.583Z,1012.26
2018-08-22T07:48:46.565Z,1012.26
2018-08-22T07:49:46.542Z,1012.26
2018-08-22T07:50:46.517Z,1012.27
2018-08-22T07:51:46.497Z,1012.25
2018-08-22T07:52:46.479Z,1012.27
2018-08-22T07:53:46.461Z,1012.24
2018-08-22T07:54:46.437Z,1012.25
2018-08-22T07:55:46.408Z,1012.27
2018-08-22T07:56:46.395Z,1012.33
2018-08-22T07:57:46.362Z,1012.29
2018-08-22T07:58:46.343Z,1012.33
2018-08-22T07:59:46.332Z,1012.32
2018-08-22T08:00:46.296Z,1012.32
2018-08-22T08:01:46.326Z,1012.31
2018-08-22T08:02:46.255Z,1012.33
2018-08-22T08:03:46.232Z,1012.33
2018-08-22T08:04:46.211Z,1012.30
2018-08-22T08:05:46.196Z,1012.28
2018-08-22T08:06:46.165Z,1012.32
2018-08-22T08:07:46.145Z,1012.30
2018-08-22T08:08:46.198Z,1012.33
2018-08-22T08:09:46.096Z,1012.31
2018-08-22T08:10:46.080Z,1012.33
2018-08-22T08:11:46.056Z,1012.31
2018-08-22T08:12:46.031Z,1012.34
2018-08-22T08:13:46.022Z,1012.32
2018-08-22T08:14:46.001Z,1012.30
2018-08-22T08:15:45.971Z,1012.33
2018-08-22T08:16:45.948Z,1012.31
2018-08-22T08:17:45.938Z,1012.29
2018-08-22T08:18:45.910Z,1012.29
2018-08-22T08:19:45.913Z,1012.27
2018-08-22T08:20:45.862Z,1012.27
2018-08-22T08:21:45.834Z,1012.26
2018-08-22T08:22:45.812Z,1012.23
2018-08-22T08:23:45.796Z,1012.24
2018-08-22T08:24:45.770Z,1012.26
2018-08-22T08:25:45.755Z,1012.24
2018-08-22T08:26:45.728Z,1012.23
2018-08-22T08:27:45.713Z,1012.23
2018-08-22T08:28:45.686Z,1012.23
2018-08-22T08:29:45.665Z,1012.24
2018-08-22T08:30:45.657Z,1012.23
2018-08-22T08:31:45.619Z,1012.25
2018-08-22T08:32:45.601Z,1012.25
2018-08-22T08:33:45.579Z,1012.24
2018-08-22T08:34:45.561Z,1012.24
2018-08-22T08:35:45.551Z,1012.25
2018-08-22T08:36:45.523Z,1012.20
2018-08-22T08:37:45.493Z,1012.19
2018-08-22T08:38:45.478Z,1012.18
2018-08-22T08:39:45.449Z,1012.17
2018-08-22T08:40:45.440Z,1012.14
2018-08-22T08:41:45.502Z,1012.16
2018-08-22T08:42:45.396Z,1012.13
2018-08-22T08:43:45.366Z,1012.13
2018-08-22T08:44:45.358Z,1012.13
2018-08-22T08:45:45.319Z,1012.10
2018-08-22T08:46:45.309Z,1012.13
2018-08-22T08:47:45.308Z,1012.11
2018-08-22T08:48:45.266Z,1012.11
2018-08-22T08:49:45.248Z,1012.11
2018-08-22T08:50:45.216Z,1012.15
2018-08-22T08:51:45.211Z,1012.10
2018-08-22T08:52:45.182Z,1012.10
2018-08-22T08:53:45.152Z,1012.07
2018-08-22T08:54:45.132Z,1012.08
2018-08-22T08:55:45.128Z,1012.07
2018-08-22T08:56:45.099Z,1012.06
2018-08-22T08:57:45.077Z,1012.03
2018-08-22T08:58:45.053Z,1012.02
2018-08-22T08:59:45.030Z,1012.02
2018-08-22T09:00:45.058Z,1011.98
2018-08-22T09:01:44.987Z,1011.95
2018-08-22T09:02:44.997Z,1011.97
2018-08-22T09:03:44.968Z,1011.97
2018-08-22T09:04:44.927Z,1011.97
2018-08-22T09:05:44.910Z,1011.97
2018-08-22T09:06:44.893Z,1011.96
2018-08-22T09:07:44.864Z,1011.99
2018-08-22T09:08:44.851Z,1011.95
2018-08-22T09:09:44.826Z,1011.91
2018-08-22T09:10:44.844Z,1011.88
2018-08-22T09:11:44.788Z,1011.89
2018-08-22T09:12:44.767Z,1011.87
2018-08-22T09:13:44.749Z,1011.88
2018-08-22T09:14:44.728Z,1011.88
2018-08-22T09:15:44.706Z,1011.86
2018-08-22T09:16:44.682Z,1011.85
2018-08-22T09:17:44.663Z,1011.89
2018-08-22T09:18:44.641Z,1011.86
2018-08-22T09:19:44.632Z,1011.84
2018-08-22T09:20:44.605Z,1011.82
2018-08-22T09:21:44.592Z,1011.84
2018-08-22T09:22:44.564Z,1011.85
2018-08-22T09:23:44.540Z,1011.79
2018-08-22T09:24:44.522Z,1011.74
2018-08-22T09:25:44.538Z,1011.75
2018-08-22T09:26:44.484Z,1011.74
2018-08-22T09:27:44.466Z,1011.72
2018-08-22T09:28:44.446Z,1011.73
2018-08-22T09:29:44.428Z,1011.73
2018-08-22T09:30:44.411Z,1011.74
2018-08-22T09:31:44.382Z,1011.72
2018-08-22T09:32:44.364Z,1011.74
2018-08-22T09:33:44.404Z,1011.73
2018-08-22T09:34:44.319Z,1011.74
2018-08-22T09:35:44.305Z,1011.75
2018-08-22T09:36:44.286Z,1011.77
2018-08-22T09:37:44.262Z,1011.69
2018-08-22T09:38:44.240Z,1011.71
2018-08-22T09:39:44.276Z,1011.69
2018-08-22T09:40:44.225Z,1011.71
2018-08-22T09:41:44.181Z,1011.70
2018-08-22T09:42:44.165Z,1011.68
2018-08-22T09:43:44.143Z,1011.64
2018-08-22T09:44:44.150Z,1011.64
2018-08-22T09:45:44.108Z,1011.64
2018-08-22T09:46:44.149Z,1011.66
2018-08-22T09:47:44.062Z,1011.62
2018-08-22T09:48:44.043Z,1011.62
2018-08-22T09:49:44.028Z,1011.59
2018-08-22T09:50:44.014Z,1011.59
2018-08-22T09:51:43.997Z,1011.57
2018-08-22T09:52:43.967Z,1011.55
2018-08-22T09:53:43.946Z,1011.57
2018-08-22T09:54:43.966Z,1011.53
2018-08-22T09:55:43.910Z,1011.54
2018-08-22T09:56:43.888Z,1011.52
2018-08-22T09:57:43.875Z,1011.54
2018-08-22T09:58:43.849Z,1011.52
2018-08-22T09:59:43.834Z,1011.54
2018-08-22T10:00:43.883Z,1011.54
2018-08-22T10:01:43.793Z,1011.52
2018-08-22T10:02:43.777Z,1011.51
2018-08-22T10:03:43.762Z,1011.51
2018-08-22T10:04:43.739Z,1011.46
2018-08-22T10:05:43.722Z,1011.43
2018-08-22T10:06:43.759Z,1011.43
2018-08-22T10:07:43.678Z,1011.40
2018-08-22T10:08:43.659Z,1011.39
2018-08-22T10:09:43.641Z,1011.40
2018-08-22T10:10:43.623Z,1011.35
2018-08-22T10:11:43.618Z,1011.34
2018-08-22T10:12:43.607Z,1011.36
2018-08-22T10:13:43.568Z,1011.39
2018-08-22T10:14:43.595Z,1011.33
2018-08-22T10:15:43.528Z,1011.35
2018-08-22T10:16:43.514Z,1011.36
2018-08-22T10:17:43.489Z,1011.30
2018-08-22T10:18:43.478Z,1011.28
2018-08-22T10:19:43.496Z,1011.27
2018-08-22T10:20:43.443Z,1011.26
2018-08-22T10:21:43.414Z,1011.21
2018-08-22T10:22:43.397Z,1011.24
2018-08-22T10:23:43.387Z,1011.21
2018-08-22T10:24:43.397Z,1011.23
2018-08-22T10:25:43.356Z,1011.21
2018-08-22T10:26:43.326Z,1011.19
2018-08-22T10:27:43.314Z,1011.15
2018-08-22T10:28:43.289Z,1011.09
2018-08-22T10:29:43.268Z,1011.12
2018-08-22T10:30:43.248Z,1011.11
2018-08-22T10:31:43.233Z,1011.08
2018-08-22T10:32:43.265Z,1011.09
2018-08-22T10:33:43.195Z,1011.05
2018-08-22T10:34:43.183Z,1011.08
2018-08-22T10:35:43.156Z,1011.08
2018-08-22T10:36:43.142Z,1011.07
2018-08-22T10:37:43.127Z,1011.07
2018-08-22T10:38:43.107Z,1011.07
2018-08-22T10:39:43.089Z,1011.05
2018-08-22T10:40:43.066Z,1011.04
2018-08-22T10:41:43.054Z,1011.07
2018-08-22T10:42:43.029Z,1011.02
2018-08-22T10:43:43.017Z,1011.05
2018-08-22T10:44:42.999Z,1011.04
2018-08-22T10:45:42.978Z,1011.07
2018-08-22T10:46:42.961Z,1011.06
2018-08-22T10:47:42.940Z,1011.08
2018-08-22T10:48:42.919Z,1011.06
2018-08-22T10:49:42.909Z,1011.06
2018-08-22T10:50:42.908Z,1011.04
2018-08-22T10:51:42.871Z,1011.01
2018-08-22T10:52:42.850Z,1011.07
2018-08-22T10:53:42.834Z,1011.05
2018-08-22T10:54:42.820Z,1011.07
2018-08-22T10:55:42.796Z,1011.07
2018-08-22T10:56:42.786Z,1011.05
2018-08-22T10:57:42.757Z,1011.04
2018-08-22T10:58:42.745Z,1011.01
2018-08-22T10:59:42.724Z,1011.04
2018-08-22T11:00:42.704Z,1011.06
2018-08-22T11:01:42.698Z,1011.07
2018-08-22T11:02:42.672Z,1011.10
2018-08-22T11:03:42.657Z,1011.08
2018-08-22T11:04:42.647Z,1011.06
2018-08-22T11:05:42.617Z,1011.06
2018-08-22T11:06:42.600Z,1011.08
2018-08-22T11:07:42.590Z,1011.09
2018-08-22T11:08:42.568Z,1011.09
2018-08-22T11:09:42.549Z,1011.07
2018-08-22T11:10:42.530Z,1011.05
2018-08-22T11:11:42.515Z,1011.05
2018-08-22T11:12:42.497Z,1011.02
2018-08-22T11:13:42.480Z,1011.03
2018-08-22T11:14:42.458Z,1011.03
2018-08-22T11:15:42.512Z,1011.06
2018-08-22T11:16:42.425Z,1011.06
2018-08-22T11:17:42.410Z,1011.03
2018-08-22T11:18:42.395Z,1011.03
2018-08-22T11:19:42.377Z,1011.02
2018-08-22T11:20:42.358Z,1011.02
2018-08-22T11:21:42.339Z,1011.01
2018-08-22T11:22:42.329Z,1010.99
2018-08-22T11:23:42.306Z,1010.97
2018-08-22T11:24:42.292Z,1010.99
2018-08-22T11:25:42.267Z,1010.94
2018-08-22T11:26:42.256Z,1010.94
2018-08-22T11:27:42.245Z,1010.93
2018-08-22T11:28:42.218Z,1010.95
2018-08-22T11:29:42.206Z,1010.93
2018-08-22T11:30:42.196Z,1010.90
2018-08-22T11:31:42.163Z,1010.91
2018-08-22T11:32:42.151Z,1010.89
2018-08-22T11:33:42.131Z,1010.89
2018-08-22T11:34:42.119Z,1010.85
2018-08-22T11:35:42.101Z,1010.86
2018-08-22T11:36:42.083Z,1010.84
2018-08-22T11:37:42.062Z,1010.76
2018-08-22T11:38:42.047Z,1010.80
2018-08-22T11:39:42.042Z,1010.85
2018-08-22T11:40:42.017Z,1010.84
2018-08-22T11:41:42.002Z,1010.83
2018-08-22T11:42:41.986Z,1010.76
2018-08-22T11:43:41.976Z,1010.81
2018-08-22T11:44:41.963Z,1010.85
2018-08-22T11:45:41.927Z,1010.84
2018-08-22T11:46:41.940Z,1010.85
2018-08-22T11:47:41.905Z,1010.84
2018-08-22T11:48:41.883Z,1010.87
2018-08-22T11:49:41.866Z,1010.85
2018-08-22T11:50:41.845Z,1010.84
2018-08-22T11:51:41.836Z,1010.87
2018-08-22T11:52:41.825Z,1010.83
2018-08-22T11:53:41.797Z,1010.86
2018-08-22T11:54:41.786Z,1010.82
2018-08-22T11:55:41.770Z,1010.82
2018-08-22T11:56:41.755Z,1010.83
2018-08-22T11:57:41.731Z,1010.79
2018-08-22T11:58:41.721Z,1010.79
2018-08-22T11:59:41.709Z,1010.77
2018-08-22T12:00:41.688Z,1010.73
2018-08-22T12:01:41.672Z,1010.74
2018-08-22T12:02:41.649Z,1010.72
2018-08-22T12:03:41.641Z,1010.66
2018-08-22T12:04:41.621Z,1010.66
2018-08-22T12:05:41.604Z,1010.68